createdAt,value
2018-08-19T00:02:21.259Z,20.50
2018-08-19T00:05:06.877Z,20.50
2018-08-19T00:07:37.510Z,20.20
2018-08-19T00:10:07.410Z,20.20
2018-08-19T00:12:40.168Z,19.90
2018-08-19T00:15:09.479Z,20.10
2018-08-19T00:17:39.025Z,20.00
2018-08-19T00:25:33.602Z,19.60
2018-08-19T00:28:04.796Z,19.90
2018-08-19T00:30:35.346Z,19.60
2018-08-19T00:36:00.697Z,19.40
2018-08-19T00:38:30.084Z,19.40
2018-08-19T00:40:59.551Z,19.50
2018-08-19T00:43:28.687Z,19.70
2018-08-19T00:45:56.954Z,19.90
2018-08-19T00:48:26.102Z,20.00
2018-08-19T00:50:55.334Z,20.10
2018-08-19T00:53:25.381Z,20.00
2018-08-19T00:55:55.279Z,19.90
2018-08-19T00:58:24.662Z,19.80
2018-08-19T01:00:54.261Z,19.60
2018-08-19T01:03:23.741Z,19.40
2018-08-19T01:05:52.945Z,19.10
2018-08-19T01:08:22.508Z,19.20
2018-08-19T01:10:52.567Z,19.50
2018-08-19T01:13:21.873Z,19.60
2018-08-19T01:15:51.353Z,19.10
2018-08-19T01:18:20.609Z,19.30
2018-08-19T01:20:54.568Z,19.00
2018-08-19T01:23:23.864Z,19.00
2018-08-19T01:25:52.971Z,19.00
2018-08-19T01:28:22.024Z,19.20
2018-08-19T01:30:52.026Z,19.20
2018-08-19T01:33:21.254Z,19.30
2018-08-19T01:35:50.385Z,19.30
2018-08-19T01:38:19.705Z,19.30
2018-08-19T01:40:49.000Z,19.40
2018-08-19T01:43:18.470Z,19.40
2018-08-19T01:45:48.583Z,19.30
2018-08-19T01:48:17.773Z,19.10
2018-08-19T01:50:46.887Z,19.20
2018-08-19T01:53:16.319Z,19.20
2018-08-19T01:55:45.682Z,19.10
2018-08-19T01:58:14.809Z,19.20
2018-08-19T02:00:44.112Z,18.90
2018-08-19T02:03:13.447Z,18.80
2018-08-19T02:05:43.758Z,19.00
2018-08-19T02:10:50.619Z,19.30
2018-08-19T02:13:21.925Z,19.50
2018-08-19T02:15:52.365Z,19.40
2018-08-19T02:18:22.996Z,19.40
2018-08-19T02:20:52.656Z,19.00
2018-08-19T02:23:21.998Z,19.00
2018-08-19T02:25:51.429Z,19.10
2018-08-19T02:28:21.875Z,19.30
2018-08-19T02:30:56.227Z,18.90
2018-08-19T02:33:25.470Z,18.90
2018-08-19T02:36:00.082Z,18.80
2018-08-19T02:38:29.767Z,18.40
2018-08-19T02:40:58.893Z,18.50
2018-08-19T02:43:28.103Z,18.50
2018-08-19T02:45:57.593Z,18.60
2018-08-19T02:48:45.004Z,18.70
2018-08-19T02:51:16.803Z,18.50
2018-08-19T02:53:47.393Z,18.50
2018-08-19T02:56:17.315Z,18.80
2018-08-19T02:58:47.417Z,18.80
2018-08-19T03:01:18.001Z,18.60
2018-08-19T03:03:48.489Z,18.40
2018-08-19T03:06:18.202Z,18.40
2018-08-19T03:08:53.039Z,18.30
2018-08-19T03:11:22.868Z,18.30
2018-08-19T03:13:51.984Z,18.60
2018-08-19T03:16:21.422Z,18.40
2018-08-19T03:18:51.978Z,18.50
2018-08-19T03:21:23.618Z,18.30
2018-08-19T03:23:54.239Z,18.10
2018-08-19T03:26:23.332Z,18.30
2018-08-19T03:28:52.872Z,18.30
2018-08-19T03:31:22.065Z,18.30
2018-08-19T03:33:51.187Z,18.50
2018-08-19T03:36:20.347Z,18.50
2018-08-19T03:38:49.771Z,18.40
2018-08-19T03:41:19.257Z,18.40
2018-08-19T03:43:53.427Z,18.50
2018-08-19T03:46:23.921Z,18.50
2018-08-19T03:48:53.174Z,18.70
2018-08-19T03:51:22.997Z,18.70
2018-08-19T03:53:53.017Z,18.70
2018-08-19T03:56:27.524Z,18.60
2018-08-19T03:58:59.810Z,18.80
2018-08-19T04:01:38.799Z,18.70
2018-08-19T04:04:09.440Z,18.60
2018-08-19T04:06:40.058Z,18.60
2018-08-19T04:09:09.947Z,18.40
2018-08-19T04:11:39.331Z,18.40
2018-08-19T04:14:26.436Z,18.40
2018-08-19T04:16:59.323Z,18.50
2018-08-19T04:19:30.739Z,18.70
2018-08-19T04:22:01.997Z,18.40
2018-08-19T04:24:31.703Z,18.40
2018-08-19T04:27:12.478Z,18.50
2018-08-19T04:32:22.623Z,18.90
2018-08-19T04:34:52.069Z,19.20
2018-08-19T04:37:21.583Z,18.60
2018-08-19T04:39:50.927Z,18.70
2018-08-19T04:42:20.408Z,18.70
2018-08-19T04:44:49.614Z,18.80
2018-08-19T04:47:29.596Z,18.90
2018-08-19T04:49:58.906Z,19.20
2018-08-19T04:52:28.266Z,19.10
2018-08-19T04:57:33.154Z,19.40
2018-08-19T05:00:02.316Z,19.40
2018-08-19T05:02:31.802Z,19.50
2018-08-19T05:05:01.084Z,19.70
2018-08-19T05:07:30.558Z,19.90
2018-08-19T05:09:59.694Z,20.00
2018-08-19T05:12:29.081Z,20.00
2018-08-19T05:14:58.255Z,20.10
2018-08-19T05:17:27.669Z,20.60
2018-08-19T05:20:16.030Z,20.70
2018-08-19T05:22:45.305Z,21.10
2018-08-19T05:25:14.324Z,21.50
2018-08-19T05:27:43.417Z,21.40
2018-08-19T05:30:12.329Z,21.20
2018-08-19T05:32:46.964Z,21.30
2018-08-19T05:35:15.935Z,21.50
2018-08-19T05:37:44.983Z,21.70
2018-08-19T05:40:14.000Z,21.90
2018-08-19T05:42:42.960Z,22.10
2018-08-19T05:45:11.968Z,22.00
2018-08-19T05:47:40.940Z,21.70
2018-08-19T05:50:09.984Z,22.10
2018-08-19T05:52:39.040Z,22.20
2018-08-19T05:55:08.355Z,22.10
2018-08-19T05:57:43.757Z,22.40
2018-08-19T06:00:18.469Z,22.40
2018-08-19T06:02:47.481Z,22.70
2018-08-19T06:05:16.368Z,23.20
2018-08-19T06:07:45.748Z,23.10
2018-08-19T06:10:14.753Z,22.30
2018-08-19T06:12:43.690Z,22.40
2018-08-19T06:15:12.590Z,22.70
2018-08-19T06:17:41.539Z,22.90
2018-08-19T06:20:11.146Z,23.00
2018-08-19T06:22:41.547Z,23.10
2018-08-19T06:25:11.946Z,22.90
2018-08-19T06:27:45.598Z,23.00
2018-08-19T06:30:15.620Z,23.10
2018-08-19T06:32:45.581Z,23.40
2018-08-19T06:35:15.272Z,23.40
2018-08-19T06:37:44.839Z,23.40
2018-08-19T06:42:56.820Z,23.30
2018-08-19T06:45:25.719Z,23.60
2018-08-19T06:47:54.523Z,23.60
2018-08-19T06:50:26.912Z,23.10
2018-08-19T06:52:56.237Z,23.60
2018-08-19T06:55:25.172Z,23.70
2018-08-19T06:57:57.050Z,23.50
2018-08-19T07:00:31.911Z,23.70
2018-08-19T07:03:04.102Z,23.80
2018-08-19T07:05:33.680Z,24.30
2018-08-19T07:08:03.126Z,24.50
2018-08-19T07:10:39.095Z,24.30
2018-08-19T07:13:10.471Z,24.40
2018-08-19T07:15:40.686Z,24.20
2018-08-19T07:18:12.217Z,24.00
2018-08-19T07:20:41.932Z,24.10
2018-08-19T07:23:11.210Z,24.30
2018-08-19T07:25:45.225Z,24.40
2018-08-19T07:28:15.514Z,24.60
2018-08-19T07:30:44.516Z,24.70
2018-08-19T07:33:13.920Z,24.50
2018-08-19T07:35:42.753Z,24.70
2018-08-19T07:38:11.905Z,24.50
2018-08-19T07:40:41.118Z,24.60
2018-08-19T07:43:10.193Z,24.80
2018-08-19T07:45:39.203Z,25.10
2018-08-19T07:48:08.321Z,25.10
2018-08-19T07:50:37.325Z,25.20
2018-08-19T07:53:06.393Z,25.50
2018-08-19T07:55:35.396Z,25.90
2018-08-19T07:58:04.615Z,26.20
2018-08-19T08:00:41.333Z,26.30
2018-08-19T08:03:10.462Z,25.80
2018-08-19T08:05:44.908Z,25.90
2018-08-19T08:08:13.857Z,26.30
2018-08-19T08:10:42.926Z,26.70
2018-08-19T08:13:13.280Z,26.70
2018-08-19T08:15:47.538Z,26.70
2018-08-19T08:20:58.913Z,27.00
2018-08-19T08:23:29.716Z,27.30
2018-08-19T08:25:58.710Z,27.30
2018-08-19T08:28:27.729Z,27.50
2018-08-19T08:30:56.947Z,27.50
2018-08-19T08:33:26.231Z,27.40
2018-08-19T08:38:31.758Z,27.40
2018-08-19T08:41:02.002Z,27.30
2018-08-19T08:43:30.985Z,27.50
2018-08-19T08:46:00.745Z,27.80
2018-08-19T08:48:30.500Z,28.00
2018-08-19T08:51:03.162Z,27.90
2018-08-19T08:53:40.442Z,27.90
2018-08-19T08:56:09.386Z,28.10
2018-08-19T08:58:38.400Z,28.70
2018-08-19T09:01:07.487Z,28.90
2018-08-19T09:03:36.523Z,29.00
2018-08-19T09:06:15.400Z,29.20
2018-08-19T09:08:44.496Z,28.90
2018-08-19T09:11:13.864Z,28.70
2018-08-19T09:13:42.941Z,29.00
2018-08-19T09:16:11.989Z,29.40
2018-08-19T09:18:41.127Z,29.40
2018-08-19T09:21:10.160Z,29.70
2018-08-19T09:23:39.249Z,29.30
2018-08-19T09:26:08.345Z,29.10
2018-08-19T09:28:37.281Z,29.50
2018-08-19T09:31:06.507Z,29.80
2018-08-19T09:33:36.346Z,29.50
2018-08-19T09:36:06.438Z,29.90
2018-08-19T09:38:36.220Z,30.10
2018-08-19T09:41:06.257Z,30.10
2018-08-19T09:43:35.218Z,30.20
2018-08-19T09:46:04.413Z,30.40
2018-08-19T09:48:33.469Z,30.50
2018-08-19T09:51:05.500Z,30.40
2018-08-19T09:53:35.208Z,30.60
2018-08-19T09:56:09.210Z,30.40
2018-08-19T09:58:38.430Z,30.50
2018-08-19T10:01:14.023Z,30.40
2018-08-19T10:03:42.974Z,30.20
2018-08-19T10:06:12.288Z,30.20
2018-08-19T10:08:41.486Z,30.40
2018-08-19T10:11:11.483Z,30.20
2018-08-19T10:13:40.557Z,31.00
2018-08-19T10:16:09.524Z,31.40
2018-08-19T10:18:38.672Z,31.40
2018-08-19T10:21:12.705Z,31.60
2018-08-19T10:23:42.479Z,31.70
2018-08-19T10:26:11.659Z,31.70
2018-08-19T10:28:41.849Z,31.80
2018-08-19T10:31:17.974Z,32.00
2018-08-19T10:33:47.450Z,31.70
2018-08-19T10:36:16.436Z,31.90
2018-08-19T10:38:45.328Z,32.00
2018-08-19T10:41:14.352Z,32.00
2018-08-19T10:43:43.650Z,32.10
2018-08-19T10:46:12.656Z,31.80
2018-08-19T10:48:41.918Z,32.20
2018-08-19T10:56:10.695Z,32.20
2018-08-19T10:58:45.535Z,32.00
2018-08-19T11:01:15.122Z,32.10
2018-08-19T11:03:43.997Z,32.50
2018-08-19T11:06:12.932Z,32.40
2018-08-19T11:08:49.547Z,32.70
2018-08-19T11:11:18.556Z,32.30
2018-08-19T11:13:48.032Z,32.10
2018-08-19T11:16:17.313Z,32.50
2018-08-19T11:18:47.891Z,32.30
2018-08-19T11:21:29.044Z,32.60
2018-08-19T11:23:59.262Z,32.90
2018-08-19T11:26:28.637Z,32.90
2018-08-19T11:29:00.793Z,32.90
2018-08-19T11:31:32.130Z,33.00
2018-08-19T11:36:44.227Z,32.90
2018-08-19T11:39:15.460Z,32.80
2018-08-19T11:41:44.349Z,32.90
2018-08-19T11:44:15.450Z,33.10
2018-08-19T11:46:44.419Z,33.10
2018-08-19T11:49:15.590Z,33.10
2018-08-19T11:51:49.805Z,33.00
2018-08-19T11:54:20.781Z,33.10
2018-08-19T11:56:57.054Z,33.10
2018-08-19T11:59:31.912Z,33.10
2018-08-19T12:02:02.155Z,33.10
2018-08-19T12:04:31.868Z,33.30
2018-08-19T12:07:01.260Z,33.20
2018-08-19T12:09:30.690Z,32.60
2018-08-19T12:12:00.117Z,33.10
2018-08-19T12:14:33.103Z,33.60
2018-08-19T12:17:02.828Z,33.40
2018-08-19T12:19:32.397Z,32.90
2018-08-19T12:22:02.584Z,32.90
2018-08-19T12:24:35.560Z,32.60
2018-08-19T12:27:06.573Z,32.80
2018-08-19T12:29:36.404Z,33.00
2018-08-19T12:32:27.751Z,33.30
2018-08-19T12:34:58.257Z,33.40
2018-08-19T12:37:28.261Z,33.40
2018-08-19T12:39:57.753Z,33.40
2018-08-19T12:42:27.651Z,32.80
2018-08-19T12:45:12.207Z,32.50
2018-08-19T12:47:41.014Z,32.20
2018-08-19T12:50:15.301Z,32.20
2018-08-19T12:52:44.325Z,32.40
2018-08-19T12:57:55.570Z,32.90
2018-08-19T13:00:27.995Z,32.90
2018-08-19T13:02:56.819Z,33.00
2018-08-19T13:05:25.702Z,33.30
2018-08-19T13:07:54.768Z,33.40
2018-08-19T13:10:27.606Z,33.30
2018-08-19T13:12:57.697Z,33.40
2018-08-19T13:15:28.923Z,33.70
2018-08-19T13:17:57.850Z,33.80
2018-08-19T13:20:27.152Z,34.20
2018-08-19T13:22:59.743Z,34.20
2018-08-19T13:25:28.858Z,34.10
2018-08-19T13:27:58.215Z,33.40
2018-08-19T13:30:27.779Z,33.30
2018-08-19T13:32:56.833Z,33.60
2018-08-19T13:35:25.963Z,33.40
2018-08-19T13:37:55.946Z,33.60
2018-08-19T13:40:25.864Z,33.60
2018-08-19T13:42:54.992Z,33.70
2018-08-19T13:45:26.196Z,33.60
2018-08-19T13:47:55.599Z,33.60
2018-08-19T13:50:25.961Z,33.90
2018-08-19T13:52:55.092Z,33.50
2018-08-19T13:55:24.683Z,33.10
2018-08-19T13:57:54.328Z,33.50
2018-08-19T14:03:02.936Z,34.00
2018-08-19T14:05:32.735Z,34.30
2018-08-19T14:08:02.712Z,33.80
2018-08-19T14:10:32.814Z,33.30
2018-08-19T14:13:02.655Z,32.90
2018-08-19T14:15:32.042Z,32.80
2018-08-19T14:18:04.838Z,32.90
2018-08-19T14:20:33.798Z,33.20
2018-08-19T14:23:03.188Z,32.80
2018-08-19T14:25:32.148Z,32.60
2018-08-19T14:28:01.009Z,33.20
2018-08-19T14:30:30.237Z,33.10
2018-08-19T14:35:33.960Z,32.80
2018-08-19T14:38:03.776Z,32.10
2018-08-19T14:43:09.664Z,31.80
2018-08-19T14:45:38.741Z,31.80
2018-08-19T14:48:07.931Z,31.80
2018-08-19T14:50:36.975Z,31.60
2018-08-19T14:53:05.959Z,31.60
2018-08-19T14:55:38.208Z,31.40
2018-08-19T14:58:10.869Z,30.90
2018-08-19T15:00:41.114Z,30.40
2018-08-19T15:03:13.713Z,30.10
2018-08-19T15:05:47.720Z,30.00
2018-08-19T15:08:20.072Z,30.00
2018-08-19T15:10:57.537Z,30.10
2018-08-19T15:13:29.256Z,30.20
2018-08-19T15:15:59.704Z,30.30
2018-08-19T15:18:31.456Z,30.50
2018-08-19T15:21:05.375Z,31.10
2018-08-19T15:23:37.956Z,31.40
2018-08-19T15:26:10.931Z,31.70
2018-08-19T15:28:40.906Z,31.50
2018-08-19T15:31:16.832Z,31.10
2018-08-19T15:33:50.158Z,31.40
2018-08-19T15:36:21.440Z,31.70
2018-08-19T15:38:52.556Z,31.40
2018-08-19T15:41:23.833Z,31.30
2018-08-19T15:43:56.165Z,31.30
2018-08-19T15:46:28.344Z,31.50
2018-08-19T15:48:59.003Z,31.50
2018-08-19T15:51:31.878Z,31.60
2018-08-19T15:54:03.384Z,31.50
2018-08-19T15:56:36.159Z,31.20
2018-08-19T15:59:10.269Z,31.20
2018-08-19T16:04:25.041Z,31.30
2018-08-19T16:06:56.647Z,31.50
2018-08-19T16:09:30.036Z,31.50
2018-08-19T16:14:41.622Z,31.70
2018-08-19T16:17:12.639Z,31.80
2018-08-19T16:19:45.355Z,31.80
2018-08-19T16:22:17.859Z,31.30
2018-08-19T16:24:51.477Z,31.10
2018-08-19T16:27:24.254Z,31.00
2018-08-19T16:32:31.062Z,30.90
2018-08-19T16:35:03.311Z,30.80
2018-08-19T16:37:34.905Z,30.90
2018-08-19T16:40:07.541Z,30.80
2018-08-19T16:42:39.353Z,30.70
2018-08-19T16:45:13.808Z,30.50
2018-08-19T16:47:44.901Z,30.50
2018-08-19T16:50:23.320Z,30.10
2018-08-19T16:52:58.513Z,29.90
2018-08-19T16:55:31.221Z,30.00
2018-08-19T17:00:41.365Z,29.80
2018-08-19T17:03:26.310Z,30.00
2018-08-19T17:06:00.246Z,29.80
2018-08-19T17:08:33.850Z,29.30
2018-08-19T17:11:06.838Z,29.40
2018-08-19T17:13:39.188Z,29.50
2018-08-19T17:16:09.565Z,29.30
2018-08-19T17:18:44.433Z,29.10
2018-08-19T17:21:16.142Z,28.90
2018-08-19T17:23:53.759Z,28.50
2018-08-19T17:26:26.726Z,28.70
2018-08-19T17:29:32.646Z,28.80
2018-08-19T17:32:05.834Z,28.80
2018-08-19T17:34:40.589Z,28.80
2018-08-19T17:37:12.993Z,28.60
2018-08-19T17:39:46.841Z,28.70
2018-08-19T17:42:19.917Z,28.60
2018-08-19T17:44:53.184Z,28.40
2018-08-19T17:47:25.526Z,28.40
2018-08-19T17:49:59.753Z,28.20
2018-08-19T17:52:32.870Z,28.20
2018-08-19T17:55:04.720Z,28.20
2018-08-19T17:57:36.976Z,28.10
2018-08-19T18:00:08.801Z,27.90
2018-08-19T18:02:40.774Z,27.90
2018-08-19T18:05:17.045Z,27.70
2018-08-19T18:07:56.711Z,27.60
2018-08-19T18:10:28.230Z,27.60
2018-08-19T18:13:00.336Z,27.40
2018-08-19T18:15:32.721Z,27.30
2018-08-19T18:18:08.877Z,27.20
2018-08-19T18:20:45.748Z,27.10
2018-08-19T18:23:34.149Z,27.00
2018-08-19T18:26:05.625Z,27.00
2018-08-19T18:28:36.466Z,26.80
2018-08-19T18:31:09.184Z,26.70
2018-08-19T18:33:51.815Z,26.80
2018-08-19T18:36:25.007Z,26.70
2018-08-19T18:38:58.366Z,26.60
2018-08-19T18:41:35.674Z,26.30
2018-08-19T18:44:09.603Z,26.20
2018-08-19T18:46:43.283Z,26.30
2018-08-19T18:49:17.401Z,26.00
2018-08-19T18:51:50.131Z,26.00
2018-08-19T18:54:33.946Z,25.90
2018-08-19T18:57:09.109Z,25.90
2018-08-19T18:59:45.818Z,25.80
2018-08-19T19:02:18.850Z,25.60
2018-08-19T19:04:51.796Z,25.40
2018-08-19T19:07:24.134Z,25.30
2018-08-19T19:09:55.831Z,25.40
2018-08-19T19:12:25.668Z,25.40
2018-08-19T19:14:56.365Z,25.40
2018-08-19T19:17:30.075Z,25.30
2018-08-19T19:20:02.485Z,25.00
2018-08-19T19:22:34.209Z,24.80
2018-08-19T19:25:04.264Z,24.70
2018-08-19T19:27:36.776Z,24.50
2018-08-19T19:30:09.218Z,24.40
2018-08-19T19:32:41.640Z,24.30
2018-08-19T19:35:17.011Z,24.60
2018-08-19T19:37:49.959Z,24.70
2018-08-19T19:40:22.485Z,24.60
2018-08-19T19:42:54.493Z,24.40
2018-08-19T19:45:24.917Z,24.40
2018-08-19T19:50:36.239Z,24.60
2018-08-19T19:53:07.856Z,24.50
2018-08-19T19:55:41.795Z,24.50
2018-08-19T19:58:14.608Z,24.40
2018-08-19T20:00:55.453Z,24.20
2018-08-19T20:03:27.628Z,24.20
2018-08-19T20:05:59.315Z,24.10
2018-08-19T20:08:29.409Z,23.90
2018-08-19T20:11:07.441Z,24.00
2018-08-19T20:13:38.062Z,23.70
2018-08-19T20:16:13.310Z,23.80
2018-08-19T20:18:47.533Z,23.70
2018-08-19T20:21:23.612Z,23.60
2018-08-19T20:23:57.828Z,23.70
2018-08-19T20:26:29.981Z,23.50
2018-08-19T20:29:04.217Z,23.60
2018-08-19T20:31:35.787Z,23.50
2018-08-19T20:34:04.990Z,23.50
2018-08-19T20:36:34.942Z,23.50
2018-08-19T20:39:11.005Z,23.60
2018-08-19T20:41:41.945Z,23.40
2018-08-19T20:44:15.956Z,23.60
2018-08-19T20:46:54.662Z,23.50
2018-08-19T20:49:26.652Z,23.40
2018-08-19T20:51:58.845Z,23.50
2018-08-19T20:54:29.212Z,23.50
2018-08-19T20:56:59.516Z,23.30
2018-08-19T20:59:35.159Z,23.30
2018-08-19T21:02:07.698Z,23.20
2018-08-19T21:04:40.893Z,23.00
2018-08-19T21:07:12.649Z,23.00
2018-08-19T21:09:43.923Z,23.00
2018-08-19T21:12:14.578Z,23.20
2018-08-19T21:14:45.951Z,22.90
2018-08-19T21:17:18.485Z,22.90
2018-08-19T21:19:51.004Z,22.90
2018-08-19T21:22:22.411Z,22.60
2018-08-19T21:27:32.661Z,22.60
2018-08-19T21:30:03.441Z,22.30
2018-08-19T21:32:35.004Z,22.30
2018-08-19T21:35:07.543Z,22.50
2018-08-19T21:37:39.346Z,22.70
2018-08-19T21:40:14.072Z,22.50
2018-08-19T21:42:52.569Z,22.60
2018-08-19T21:45:23.305Z,22.30
2018-08-19T21:53:19.157Z,22.20
2018-08-19T21:55:51.295Z,22.20
2018-08-19T21:58:22.479Z,21.80
2018-08-19T22:00:59.895Z,21.90
2018-08-19T22:03:36.817Z,21.80
2018-08-19T22:06:08.762Z,21.70
2018-08-19T22:11:19.125Z,21.90
2018-08-19T22:13:49.941Z,21.60
2018-08-19T22:16:20.553Z,21.80
2018-08-19T22:18:52.333Z,21.70
2018-08-19T22:21:23.777Z,21.50
2018-08-19T22:23:57.885Z,21.60
2018-08-19T22:26:29.526Z,21.90
2018-08-19T22:29:14.529Z,21.30
2018-08-19T22:31:48.195Z,21.20
2018-08-19T22:34:23.742Z,21.40
2018-08-19T22:36:55.683Z,21.50
2018-08-19T22:39:25.822Z,21.70
2018-08-19T22:41:58.214Z,21.50
2018-08-19T22:44:29.959Z,21.70
2018-08-19T22:47:00.257Z,21.80
2018-08-19T22:49:33.552Z,21.50
2018-08-19T22:52:25.904Z,21.00
2018-08-19T22:54:59.318Z,21.20
2018-08-19T22:57:32.400Z,21.50
2018-08-19T23:00:04.320Z,21.20
2018-08-19T23:02:35.708Z,21.40
2018-08-19T23:05:08.695Z,21.40
2018-08-19T23:07:40.619Z,21.20
2018-08-19T23:10:11.603Z,20.90
2018-08-19T23:12:44.177Z,21.20
2018-08-19T23:15:24.555Z,21.20
2018-08-19T23:17:56.912Z,20.90
2018-08-19T23:20:30.073Z,20.90
2018-08-19T23:23:00.723Z,20.80
2018-08-19T23:25:31.567Z,20.80
2018-08-19T23:28:03.739Z,20.50
2018-08-19T23:30:35.918Z,20.40
2018-08-19T23:33:05.943Z,20.40
2018-08-19T23:35:39.900Z,20.50
2018-08-19T23:38:11.628Z,20.50
2018-08-19T23:40:43.711Z,20.40
2018-08-19T23:43:15.915Z,20.40
2018-08-19T23:45:48.513Z,20.30
2018-08-19T23:48:18.600Z,20.20
2018-08-19T23:50:51.030Z,20.30
2018-08-19T23:53:23.338Z,20.40
2018-08-19T23:55:53.680Z,20.70
2018-08-19T23:58:26.600Z,20.50
